createdAt,value
2023-04-20T00:00:36.277Z,7.92
2023-04-20T00:05:37.856Z,7.81
2023-04-20T00:10:39.640Z,7.74
2023-04-20T00:15:41.137Z,7.65
2023-04-20T00:20:42.585Z,7.61
2023-04-20T00:25:44.117Z,7.54
2023-04-20T00:30:45.656Z,7.48
2023-04-20T00:35:47.233Z,7.45
2023-04-20T00:40:53.221Z,7.38
2023-04-20T00:45:54.963Z,7.34
2023-04-20T00:50:56.719Z,7.34
2023-04-20T00:55:58.334Z,7.28
2023-04-20T01:00:59.935Z,7.28
2023-04-20T01:06:02.411Z,7.33
2023-04-20T01:11:03.922Z,7.35
2023-04-20T01:16:05.708Z,7.41
2023-04-20T01:21:07.380Z,7.45
2023-04-20T01:26:10.737Z,7.51
2023-04-20T01:31:12.889Z,7.54
2023-04-20T01:36:14.661Z,7.62
2023-04-20T01:41:16.125Z,7.68
2023-04-20T01:46:17.666Z,7.75
2023-04-20T01:51:19.156Z,7.80
2023-04-20T01:56:20.689Z,7.87
2023-04-20T02:01:22.302Z,7.92
2023-04-20T02:06:23.908Z,7.93
2023-04-20T02:11:26.258Z,7.96
2023-04-20T02:16:29.416Z,7.95
2023-04-20T02:21:31.501Z,7.94
2023-04-20T02:26:33.024Z,7.99
2023-04-20T02:31:34.563Z,7.99
2023-04-20T02:36:36.234Z,8.03
2023-04-20T02:41:37.719Z,8.04
2023-04-20T02:46:39.237Z,8.05
2023-04-20T02:51:40.733Z,8.05
2023-04-20T02:56:42.190Z,8.07
2023-04-20T03:01:43.687Z,8.12
2023-04-20T03:06:45.248Z,8.10
2023-04-20T03:11:46.842Z,8.12
2023-04-20T03:16:48.539Z,8.16
2023-04-20T03:21:57.224Z,8.15
2023-04-20T03:26:58.760Z,8.16
2023-04-20T03:32:00.249Z,8.12
2023-04-20T03:37:01.913Z,8.14
2023-04-20T03:42:03.749Z,8.05
2023-04-20T03:47:05.574Z,8.02
2023-04-20T03:52:07.273Z,8.02
2023-04-20T03:57:08.920Z,7.97
2023-04-20T04:02:13.265Z,7.98
2023-04-20T04:07:14.896Z,7.97
2023-04-20T04:12:17.881Z,7.90
2023-04-20T04:17:19.433Z,7.98
2023-04-20T04:22:20.966Z,7.96
2023-04-20T04:27:23.127Z,7.94
2023-04-20T04:32:24.629Z,7.97
2023-04-20T04:37:27.152Z,7.96
2023-04-20T04:42:29.035Z,7.89
2023-04-20T04:47:41.204Z,7.82
2023-04-20T04:52:42.805Z,7.83
2023-04-20T04:57:44.411Z,7.90
2023-04-20T05:02:46.111Z,7.94
2023-04-20T05:07:47.952Z,7.96
2023-04-20T05:12:49.537Z,8.00
2023-04-20T05:17:51.222Z,8.06
2023-04-20T05:22:52.814Z,8.11
2023-04-20T05:27:54.350Z,8.13
2023-04-20T05:32:55.933Z,8.13
2023-04-20T05:38:00.359Z,8.07
2023-04-20T05:43:01.946Z,8.07
2023-04-20T05:48:04.026Z,7.62
2023-04-20T05:53:05.682Z,7.60
2023-04-20T05:58:07.225Z,7.53
2023-04-20T06:03:08.938Z,7.60
2023-04-20T06:08:10.637Z,7.75
2023-04-20T06:13:12.263Z,7.78
2023-04-20T06:18:13.908Z,7.67
2023-04-20T06:23:15.792Z,7.34
2023-04-20T06:28:17.312Z,7.30
2023-04-20T06:33:18.983Z,7.51
2023-04-20T06:38:20.784Z,7.42
2023-04-20T06:43:22.317Z,7.13
2023-04-20T06:48:32.107Z,7.11
2023-04-20T06:53:34.766Z,6.87
2023-04-20T06:58:36.290Z,7.16
2023-04-20T07:03:38.358Z,7.34
2023-04-20T07:08:39.979Z,7.50
2023-04-20T07:13:41.504Z,7.59
2023-04-20T07:18:42.964Z,7.65
2023-04-20T07:23:45.097Z,7.65
2023-04-20T07:28:46.885Z,7.67
2023-04-20T07:33:48.397Z,7.54
2023-04-20T07:38:50.036Z,7.29
2023-04-20T07:43:51.571Z,7.08
2023-04-20T07:48:53.211Z,6.80
2023-04-20T07:53:54.693Z,6.16
2023-04-20T07:58:56.430Z,5.86
2023-04-20T08:03:58.075Z,5.45
2023-04-20T08:08:59.886Z,4.99
2023-04-20T08:14:01.624Z,4.81
2023-04-20T08:19:09.938Z,4.79
2023-04-20T08:24:12.186Z,4.84
2023-04-20T08:29:13.642Z,5.07
2023-04-20T08:34:15.304Z,5.19
2023-04-20T08:39:20.592Z,5.19
2023-04-20T08:44:22.686Z,5.16
2023-04-20T08:49:27.462Z,5.26
2023-04-20T08:54:29.042Z,5.28
2023-04-20T08:59:31.058Z,5.34
2023-04-20T09:04:32.619Z,5.11
2023-04-20T09:09:34.287Z,5.23
2023-04-20T09:14:46.740Z,5.41
2023-04-20T09:19:53.404Z,5.73
2023-04-20T09:24:55.156Z,6.26
2023-04-20T09:29:58.765Z,6.23
2023-04-20T09:35:00.248Z,6.28
2023-04-20T09:40:02.691Z,6.15
2023-04-20T09:45:04.736Z,6.08
2023-04-20T09:50:19.517Z,6.10
2023-04-20T09:55:26.642Z,6.20
2023-04-20T10:00:28.370Z,6.23
2023-04-20T10:05:39.388Z,6.40
2023-04-20T10:10:59.135Z,6.36
2023-04-20T10:16:00.735Z,6.63
2023-04-20T10:21:13.541Z,6.73
2023-04-20T10:26:15.080Z,7.05
2023-04-20T10:31:17.078Z,7.27
2023-04-20T10:36:34.297Z,7.27
2023-04-20T10:41:36.988Z,7.39
2023-04-20T10:46:38.518Z,7.72
2023-04-20T10:51:46.994Z,7.80
2023-04-20T10:56:52.417Z,7.86
2023-04-20T11:01:55.404Z,7.88
2023-04-20T11:07:05.501Z,7.51
2023-04-20T11:12:09.236Z,7.52
2023-04-20T11:17:11.073Z,7.47
2023-04-20T11:22:21.667Z,7.26
2023-04-20T11:27:23.871Z,7.21
2023-04-20T11:32:26.778Z,7.41
2023-04-20T11:37:29.163Z,7.99
2023-04-20T11:42:30.761Z,8.45
2023-04-20T11:47:32.321Z,8.80
2023-04-20T11:52:33.833Z,8.49
2023-04-20T11:57:35.421Z,8.45
2023-04-20T12:02:37.050Z,8.37
2023-04-20T12:07:38.636Z,8.52
2023-04-20T12:12:41.995Z,8.70
2023-04-20T12:17:43.491Z,8.86
2023-04-20T12:22:45.011Z,8.81
2023-04-20T12:27:48.137Z,8.75
2023-04-20T12:32:51.060Z,8.47
2023-04-20T12:37:52.789Z,8.42
2023-04-20T12:42:54.332Z,8.52
2023-04-20T12:47:57.247Z,8.53
2023-04-20T12:52:59.314Z,8.72
2023-04-20T12:58:00.789Z,8.84
2023-04-20T13:03:02.580Z,8.96
2023-04-20T13:08:04.299Z,8.96
2023-04-20T13:13:05.792Z,8.96
2023-04-20T13:18:07.653Z,9.27
2023-04-20T13:23:09.508Z,9.37
2023-04-20T13:28:14.027Z,9.24
2023-04-20T13:33:16.300Z,9.25
2023-04-20T13:38:17.900Z,9.33
2023-04-20T13:43:21.438Z,9.42
2023-04-20T13:48:23.544Z,9.59
2023-04-20T13:53:25.023Z,9.53
2023-04-20T13:58:28.642Z,9.38
2023-04-20T14:03:30.292Z,9.67
2023-04-20T14:08:32.012Z,9.80
2023-04-20T14:13:33.535Z,9.78
2023-04-20T14:18:35.198Z,9.71
2023-04-20T14:23:36.775Z,9.47
2023-04-20T14:28:38.308Z,9.67
2023-04-20T14:33:41.498Z,9.83
2023-04-20T14:38:43.041Z,9.89
2023-04-20T14:43:44.543Z,9.89
2023-04-20T14:48:46.483Z,9.93
2023-04-20T14:53:48.008Z,9.79
2023-04-20T14:58:49.525Z,9.96
2023-04-20T15:03:51.342Z,10.08
2023-04-20T15:08:55.152Z,10.13
2023-04-20T15:13:56.660Z,10.16
2023-04-20T15:18:58.191Z,10.11
2023-04-20T15:23:59.727Z,10.14
2023-04-20T15:29:01.222Z,10.32
2023-04-20T15:34:02.810Z,10.25
2023-04-20T15:39:04.378Z,10.42
2023-04-20T15:44:06.247Z,10.55
2023-04-20T15:49:07.763Z,10.66
2023-04-20T15:54:09.212Z,10.89
2023-04-20T15:59:10.736Z,10.89
2023-04-20T16:04:13.727Z,10.77
2023-04-20T16:09:15.527Z,10.61
2023-04-20T16:14:17.245Z,10.64
2023-04-20T16:19:19.168Z,10.76
2023-04-20T16:24:21.109Z,11.01
2023-04-20T16:29:22.626Z,11.05
2023-04-20T16:34:24.523Z,10.97
2023-04-20T16:39:26.054Z,11.02
2023-04-20T16:44:27.532Z,10.99
2023-04-20T16:49:29.161Z,10.81
2023-04-20T16:54:30.672Z,10.60
2023-04-20T16:59:32.185Z,10.51
2023-04-20T17:04:33.835Z,10.49
2023-04-20T17:09:35.493Z,10.56
2023-04-20T17:14:37.182Z,10.58
2023-04-20T17:19:40.818Z,10.58
2023-04-20T17:24:42.372Z,10.49
2023-04-20T17:29:44.939Z,10.39
2023-04-20T17:34:48.667Z,10.35
2023-04-20T17:39:50.434Z,10.31
2023-04-20T17:44:52.138Z,10.37
2023-04-20T17:49:59.658Z,10.43
2023-04-20T17:55:01.918Z,10.47
2023-04-20T18:00:05.147Z,10.62
2023-04-20T18:05:07.134Z,10.66
2023-04-20T18:10:09.249Z,10.57
2023-04-20T18:15:12.481Z,10.43
2023-04-20T18:20:14.088Z,10.35
2023-04-20T18:25:16.516Z,10.29
2023-04-20T18:30:18.344Z,10.25
2023-04-20T18:35:19.911Z,10.26
2023-04-20T18:40:21.473Z,10.23
2023-04-20T18:45:23.865Z,10.25
2023-04-20T18:50:25.359Z,10.25
2023-04-20T18:55:26.840Z,10.19
2023-04-20T19:00:28.343Z,10.15
2023-04-20T19:05:30.804Z,10.12
2023-04-20T19:10:32.329Z,9.97
2023-04-20T19:15:34.122Z,9.64
2023-04-20T19:20:36.089Z,9.50
2023-04-20T19:25:38.145Z,9.62
2023-04-20T19:30:39.693Z,9.68
2023-04-20T19:35:42.153Z,9.58
2023-04-20T19:40:43.795Z,9.53
2023-04-20T19:45:45.366Z,9.49
2023-04-20T19:50:47.065Z,9.34
2023-04-20T19:55:48.592Z,9.29
2023-04-20T20:00:51.040Z,9.14
2023-04-20T20:05:52.539Z,9.15
2023-04-20T20:10:54.003Z,9.19
2023-04-20T20:15:55.578Z,9.15
2023-04-20T20:20:57.084Z,9.14
2023-04-20T20:25:58.534Z,9.12
2023-04-20T20:31:00.493Z,9.09
2023-04-20T20:36:04.267Z,9.09
2023-04-20T20:41:06.633Z,9.12
2023-04-20T20:46:09.629Z,9.10
2023-04-20T20:51:11.755Z,9.08
2023-04-20T20:56:13.718Z,9.09
2023-04-20T21:01:16.422Z,9.04
2023-04-20T21:06:18.046Z,9.06
2023-04-20T21:11:19.553Z,8.92
2023-04-20T21:16:21.072Z,8.91
2023-04-20T21:21:22.755Z,8.89
2023-04-20T21:26:24.324Z,8.87
2023-04-20T21:31:25.842Z,8.84
2023-04-20T21:36:27.894Z,8.89
2023-04-20T21:41:29.829Z,8.83
2023-04-20T21:46:31.377Z,8.83
2023-04-20T21:51:32.996Z,8.83
2023-04-20T21:56:34.459Z,8.72
2023-04-20T22:01:36.041Z,8.83
2023-04-20T22:06:37.543Z,8.89
2023-04-20T22:11:40.275Z,8.90
2023-04-20T22:16:41.834Z,8.88
2023-04-20T22:21:43.633Z,8.88
2023-04-20T22:26:45.253Z,8.92
2023-04-20T22:31:46.823Z,8.89
2023-04-20T22:36:48.589Z,8.88
2023-04-20T22:41:50.073Z,8.85
2023-04-20T22:46:52.293Z,8.87
2023-04-20T22:51:56.990Z,8.86
2023-04-20T22:56:58.818Z,8.85
2023-04-20T23:02:00.471Z,8.90
2023-04-20T23:07:02.181Z,8.93
2023-04-20T23:12:04.400Z,8.94
2023-04-20T23:17:06.520Z,8.94
2023-04-20T23:22:09.098Z,8.89
2023-04-20T23:27:10.722Z,8.81
2023-04-20T23:32:12.238Z,8.78
2023-04-20T23:37:13.783Z,8.73
2023-04-20T23:42:15.479Z,8.72
2023-04-20T23:47:17.628Z,8.73
2023-04-20T23:52:19.149Z,8.74
2023-04-20T23:57:20.787Z,8.79
